»·PEaware :: COA438 KPHX-KSAN

COA438 :: KPHX-KSAN

FLIGHT INFORMATION

Flight Status: Arrived
Operator:
Continental Air Lines
More flights by this operator :: More flights under this callsign
Pilot: Andrew C. (28419)
Aircraft: BOEING 757-200
(B752)
More flights by this aircraft type
Origin: KPHX Phoenix Sky Harbor Intl
United States
Destination: KSAN San Diego Intl-Lindbergh
United States
More flights between these airports :: More routes between these airports
Route: FYRBD1 MOHAK J2 HOGGZ LUCKI1
File this flight plan on PilotEdge
Remarks: RMK / SIMBRIEF
Altitude:
(Current/Filed)
38,000ft
Speed:
(Current/Filed)
447kts
Departed: 20-Sep-20 12:21 PM
Arrived: 20-Sep-20 01:13 PM
Distance/Time
Traveled:
264nm/0:52
Distance/Time
To Go:
Arrived

Flight Plot

Page will automatically refresh every two minutes.

Flight plan parsing failed; only flown route is shown


Map Options




Map Legend


Flown Route
Filed Route
Departure Airport
Arrival Airport
Navaid (VOR, NDB)
Fix

Horizontal Profiles

Position Reports

Time Latitude Longitude Heading Altitude Ground
Speed
20-Sep-20 11:57 33.436880 -112.009442 89 1147ft 0kts
20-Sep-20 11:58 33.436880 -112.009442 89 1147ft 0kts
20-Sep-20 11:59 33.436880 -112.009442 89 1147ft 0kts
20-Sep-20 12:00 33.436880 -112.009442 89 1147ft 0kts
20-Sep-20 12:01 33.436880 -112.009442 89 1147ft 0kts
20-Sep-20 12:02 33.436880 -112.009442 89 1147ft 0kts
20-Sep-20 12:03 33.436880 -112.009442 89 1147ft 0kts
20-Sep-20 12:04 33.436880 -112.009442 89 1147ft 0kts
20-Sep-20 12:05 33.436880 -112.009442 89 1147ft 0kts
20-Sep-20 12:06 33.436880 -112.009442 89 1147ft 0kts
20-Sep-20 12:07 33.436880 -112.009442 89 1147ft 0kts
20-Sep-20 12:08 33.436880 -112.009442 89 1147ft 0kts
20-Sep-20 12:09 33.436880 -112.009442 89 1147ft 0kts
20-Sep-20 12:10 33.436880 -112.009442 89 1147ft 0kts
20-Sep-20 12:11 33.436873 -112.009792 58 1147ft 2kts
20-Sep-20 12:12 33.436487 -112.009918 337 1147ft 0kts
20-Sep-20 12:13 33.436487 -112.009919 337 1147ft 0kts
20-Sep-20 12:14 33.438410 -112.010221 348 1147ft 20kts
20-Sep-20 12:15 33.439016 -112.015907 269 1147ft 19kts
20-Sep-20 12:16 33.439021 -112.022285 270 1147ft 22kts
20-Sep-20 12:17 33.439082 -112.029164 291 1147ft 17kts
20-Sep-20 12:18 33.439733 -112.029659 357 1147ft 0kts
20-Sep-20 12:19 33.440859 -112.029344 82 1147ft 6kts
20-Sep-20 12:20 33.440869 -112.012723 90 1148ft 157kts
20-Sep-20 12:21 33.438908 -111.950968 92 2914ft 228kts
20-Sep-20 12:22 33.428589 -111.871193 131 5880ft 250kts
20-Sep-20 12:23 33.367160 -111.858839 220 9075ft 259kts
20-Sep-20 12:24 33.357752 -111.943738 275 11444ft 302kts
20-Sep-20 12:25 33.341407 -112.050783 233 13615ft 354kts
20-Sep-20 12:26 33.281989 -112.147961 232 16740ft 370kts
20-Sep-20 12:27 33.222848 -112.244089 232 19554ft 385kts
20-Sep-20 12:28 33.158325 -112.348643 232 22339ft 398kts
20-Sep-20 12:29 33.091596 -112.456459 233 24872ft 410kts
20-Sep-20 12:30 33.023031 -112.566885 233 27137ft 422kts
20-Sep-20 12:31 32.958746 -112.684205 249 29208ft 430kts
20-Sep-20 12:32 32.936232 -112.824695 260 31197ft 435kts
20-Sep-20 12:33 32.917342 -112.963428 261 33800ft 417kts
20-Sep-20 12:34 32.899030 -113.097432 261 35805ft 406kts
20-Sep-20 12:35 32.880919 -113.228879 261 37147ft 402kts
20-Sep-20 12:36 32.862747 -113.359686 261 37887ft 401kts
20-Sep-20 12:37 32.844543 -113.489671 261 37885ft 399kts
20-Sep-20 12:38 32.826205 -113.619623 261 37884ft 399kts
20-Sep-20 12:39 32.807705 -113.749779 261 37892ft 399kts
20-Sep-20 12:40 32.789114 -113.879640 261 37891ft 399kts
20-Sep-20 12:41 32.775693 -114.009972 269 37892ft 398kts
20-Sep-20 12:42 32.777708 -114.141373 272 37884ft 397kts
20-Sep-20 12:43 32.782948 -114.272432 272 37878ft 397kts
20-Sep-20 12:44 32.792628 -114.402736 285 37884ft 399kts
20-Sep-20 12:45 32.826270 -114.527035 286 36645ft 387kts
20-Sep-20 12:46 32.859188 -114.647374 286 34972ft 385kts
20-Sep-20 12:48 32.877604 -114.772388 269 33273ft 392kts
20-Sep-20 12:49 32.875301 -114.903574 268 31467ft 403kts
20-Sep-20 12:50 32.872323 -115.036077 268 29630ft 399kts
20-Sep-20 12:51 32.869187 -115.166826 268 27818ft 393kts
20-Sep-20 12:52 32.865943 -115.296323 268 26038ft 390kts
20-Sep-20 12:53 32.853196 -115.423439 260 24284ft 386kts
20-Sep-20 12:54 32.834463 -115.547946 258 22561ft 379kts
20-Sep-20 12:55 32.814540 -115.669696 258 20857ft 373kts
20-Sep-20 12:56 32.794796 -115.789695 258 19185ft 367kts
20-Sep-20 12:57 32.780673 -115.908872 264 17539ft 361kts
20-Sep-20 12:58 32.771903 -116.025700 263 15961ft 350kts
20-Sep-20 12:59 32.763311 -116.139058 263 14483ft 340kts
20-Sep-20 13:00 32.754830 -116.249644 262 13019ft 331kts
20-Sep-20 13:01 32.746484 -116.357482 262 11643ft 323kts
20-Sep-20 13:02 32.738246 -116.462827 263 10350ft 316kts
20-Sep-20 13:02 32.731153 -116.543772 261 9720ft 283kts
20-Sep-20 13:04 32.720804 -116.650524 261 8296ft 272kts
20-Sep-20 13:05 32.713692 -116.739417 263 7085ft 269kts
20-Sep-20 13:06 32.704611 -116.826750 249 5842ft 264kts
20-Sep-20 13:06 32.683874 -116.894356 249 4949ft 254kts
20-Sep-20 13:07 32.678203 -116.967201 287 3789ft 227kts
20-Sep-20 13:08 32.694517 -117.029788 285 2852ft 180kts
20-Sep-20 13:10 32.709912 -117.092733 284 1806ft 147kts
20-Sep-20 13:10 32.718827 -117.129467 285 1095ft 133kts
20-Sep-20 13:11 32.728692 -117.169507 286 301ft 125kts
20-Sep-20 13:12 32.734801 -117.194838 286 27ft 32kts
20-Sep-20 13:13 32.734877 -117.199367 276 27ft 15kts
20-Sep-20 13:14 32.733858 -117.202706 185 26ft 10kts
20-Sep-20 13:15 32.733356 -117.203484 268 27ft 0kts

Navigation Log

Ident Type
Flight plan parsing failed, navigation log unavailable